Time;durP1;ratioP1;P1;durP2;ratioP2;P2;SDS_P1;SDS_P2;PMS_P1;PMS_P2;Temp;Humidity;BMP_temperature;BMP_pressure;BME280_temperature;BME280_humidity;BME280_pressure;Samples;Min_cycle;Max_cycle;Signal;HPM_P1;HPM_P2
2023/03/01 07:35:04;;;;;;;0.40;0.40;;;2.10;99.90;3.90;102661.00;;;;6264376;22;20204;-66
2023/03/01 07:37:38;;;;;;;0.88;0.85;;;2.00;99.90;4.30;102678.00;;;;6124091;23;1411816;-66
2023/03/01 07:40:11;;;;;;;2.80;1.37;;;2.20;99.90;4.20;102656.00;;;;6191093;23;20165;-66
2023/03/01 07:42:42;;;;;;;1.00;1.00;;;2.20;99.90;3.70;102662.00;;;;6191036;23;20581;-67
2023/03/01 07:45:17;;;;;;;3.30;3.17;;;2.00;99.90;3.70;102684.00;;;;6190494;23;20185;-66
2023/03/01 07:47:50;;;;;;;0.27;0.27;;;2.00;99.90;4.60;102657.00;;;;6190990;23;20220;-66
2023/03/01 07:50:22;;;;;;;0.20;0.20;;;2.20;99.90;4.50;102667.00;;;;6217028;23;20586;-66
2023/03/01 07:52:52;;;;;;;0.20;0.20;;;2.30;99.90;4.90;102661.00;;;;6190772;23;20143;-65
2023/03/01 07:55:35;;;;;;;0.70;0.70;;;2.70;99.90;3.90;102677.00;;;;6190822;23;20146;-64
2023/03/01 07:58:06;;;;;;;1.23;0.73;;;2.60;99.90;3.50;102671.00;;;;6190215;23;20193;-64
2023/03/01 08:00:49;;;;;;;10.37;4.30;;;2.50;99.90;4.00;102678.00;;;;6216886;23;20502;-64
2023/03/01 08:03:31;;;;;;;0.20;0.20;;;2.40;99.90;3.90;102661.00;;;;6216990;23;20281;-64
2023/03/01 08:06:03;;;;;;;3.37;1.20;;;2.50;99.90;4.10;102677.00;;;;6216676;23;20153;-64
2023/03/01 08:09:51;;;;;;;0.60;0.60;;;2.60;99.90;4.00;102677.00;;;;6190326;23;20165;-64
2023/03/01 08:13:14;;;;;;;1.20;1.03;;;2.80;99.90;4.50;102679.00;;;;6213322;23;20590;-65
2023/03/01 08:16:06;;;;;;;2.90;2.23;;;3.30;99.90;5.10;102667.00;;;;6192649;23;20587;-65
2023/03/01 08:19:09;;;;;;;1.50;1.40;;;3.60;99.90;5.20;102677.00;;;;6214781;23;20153;-64
2023/03/01 08:21:44;;;;;;;1.50;1.40;;;3.80;99.90;5.60;102682.00;;;;6216492;23;20144;-64
2023/03/01 08:24:28;;;;;;;4.53;3.53;;;4.00;99.90;4.80;102697.00;;;;6164897;23;20187;-63
2023/03/01 08:27:19;;;;;;;0.97;0.90;;;4.10;99.90;6.60;102675.00;;;;6190262;23;20163;-64
2023/03/01 08:30:05;;;;;;;1.73;1.63;;;4.70;99.90;7.20;102669.00;;;;6181935;23;20163;-66
2023/03/01 08:32:49;;;;;;;2.73;0.77;;;4.90;99.90;7.00;102611.00;;;;6165173;23;20176;-66
2023/03/01 08:35:38;;;;;;;0.97;0.83;;;5.30;99.90;6.80;102680.00;;;;6190005;23;20243;-66
2023/03/01 08:38:04;;;;;;;3.30;0.90;;;5.20;99.90;7.10;102686.00;;;;6189905;23;20473;-66
2023/03/01 08:40:40;;;;;;;1.90;1.80;;;5.10;99.90;7.10;102682.00;;;;6190235;23;20197;-66
2023/03/01 08:43:09;;;;;;;1.90;1.80;;;5.40;99.90;8.10;102595.00;;;;6216542;23;20175;-66
2023/03/01 08:45:53;;;;;;;1.60;1.20;;;5.90;99.90;7.40;102615.00;;;;6190068;23;20149;-66
2023/03/01 08:48:43;;;;;;;1.33;0.63;;;5.50;99.90;6.80;102691.00;;;;6165349;23;20652;-66
2023/03/01 08:52:10;;;;;;;1.23;0.80;;;5.60;99.90;8.90;102629.00;;;;6216837;23;20135;-66
2023/03/01 08:55:02;;;;;;;0.87;0.60;;;6.10;99.90;9.50;102579.00;;;;6192810;23;20150;-66
2023/03/01 08:58:12;;;;;;;1.50;1.03;;;6.80;99.90;7.40;102670.00;;;;6189677;23;20574;-66
2023/03/01 09:01:10;;;;;;;3.47;2.97;;;6.10;99.90;9.10;102630.00;;;;6190113;23;20164;-66
2023/03/01 09:03:57;;;;;;;0.30;0.30;;;6.60;99.90;9.50;102608.00;;;;6173695;23;20192;-67
2023/03/01 09:06:33;;;;;;;1.60;0.87;;;6.70;99.90;7.90;102595.00;;;;6159040;23;20255;-68
2023/03/01 09:12:06;;;;;;;0.57;0.57;;;5.60;99.90;7.70;102662.00;;;;6126835;23;20193;-69
2023/03/01 09:14:40;;;;;;;1.50;1.30;;;5.80;99.90;7.90;102654.00;;;;6185610;23;20168;-70
2023/03/01 09:17:09;;;;;;;3.53;2.77;;;6.30;99.90;7.20;102661.00;;;;6184757;23;20168;-70
2023/03/01 09:19:50;;;;;;;;;;;;;;;;;;;;;
2023/03/01 09:22:39;;;;;;;3.17;2.30;;;5.70;99.90;7.00;102670.00;;;;6189928;23;20267;-64
2023/03/01 09:25:35;;;;;;;4.03;3.63;;;5.50;99.90;7.10;102660.00;;;;6190010;23;20168;-74
2023/03/01 09:28:29;;;;;;;2.77;2.57;;;5.80;99.90;6.10;102673.00;;;;6190092;23;20156;-65
2023/03/01 09:31:18;;;;;;;1.73;1.10;;;5.30;99.90;8.50;102623.00;;;;6181285;23;20164;-67
2023/03/01 09:34:23;;;;;;;;;;;;;;;;;;;;;
2023/03/01 09:40:31;;;;;;;4.73;1.67;;;6.60;99.90;9.40;102650.00;;;;6172963;23;20239;-67
2023/03/01 09:43:57;;;;;;;3.47;2.57;;;6.90;99.90;8.90;102669.00;;;;6186295;23;20187;-68
2023/03/01 09:46:45;;;;;;;0.97;0.97;;;6.90;99.90;9.70;102660.00;;;;6188087;23;20147;-68
2023/03/01 09:49:48;;;;;;;3.53;2.17;;;7.10;99.90;7.80;102671.00;;;;6185404;23;20162;-69
2023/03/01 09:53:08;;;;;;;4.60;3.00;;;6.90;99.90;7.70;102675.00;;;;6185586;23;20238;-68
2023/03/01 09:56:42;;;;;;;3.07;2.77;;;6.40;99.90;7.70;102615.00;;;;6185802;23;20162;-66
2023/03/01 10:02:41;;;;;;;3.17;1.97;;;6.60;99.90;7.10;102688.00;;;;6208713;23;20492;-68
2023/03/01 10:05:19;;;;;;;2.10;1.77;;;6.00;99.90;8.20;102670.00;;;;6161397;23;20527;-68
2023/03/01 10:08:29;;;;;;;1.50;1.10;;;6.40;99.90;9.10;102657.00;;;;6212553;23;20161;-68
2023/03/01 10:10:57;;;;;;;1.33;1.33;;;6.90;99.90;9.90;102656.00;;;;6206221;23;20181;-68
2023/03/01 10:13:56;;;;;;;1.90;1.57;;;7.60;99.90;10.30;102670.00;;;;6159543;23;20615;-66
2023/03/01 10:16:46;;;;;;;2.70;2.30;;;7.90;99.90;9.80;102660.00;;;;6186160;23;20139;-68
2023/03/01 10:19:32;;;;;;;0.77;0.77;;;7.80;99.90;10.10;102649.00;;;;6185093;23;20668;-68
2023/03/01 10:35:36;;;;;;;2.17;1.43;;;6.60;99.90;9.60;102613.00;;;;5050333;28;20576;-66
2023/03/01 10:41:12;;;;;;;3.63;2.77;;;7.50;99.90;9.70;102664.00;;;;5029448;28;20190;-66
2023/03/01 10:45:26;;;;;;;1.07;0.93;;;7.60;99.90;11.40;102648.00;;;;5013794;28;20192;-66
2023/03/01 10:48:33;;;;;;;5.23;3.97;;;8.40;99.90;8.10;102593.00;;;;5021584;28;20241;-66
2023/03/01 10:51:17;;;;;;;2.07;1.73;;;7.70;99.90;10.70;102574.00;;;;5037938;28;20250;-66
2023/03/01 10:53:51;;;;;;;7.43;3.43;;;8.10;99.90;8.10;102638.00;;;;5030052;28;20249;-66
2023/03/01 10:56:33;;;;;;;3.00;2.40;;;7.50;99.90;8.10;102638.00;;;;5029328;28;20182;-66
2023/03/01 10:59:45;;;;;;;2.80;2.53;;;7.00;99.90;8.50;102622.00;;;;5031541;28;20293;-67
2023/03/01 11:02:42;;;;;;;5.17;2.57;;;7.30;99.90;8.30;102620.00;;;;5028575;28;20202;-66
2023/03/01 11:05:14;;;;;;;2.23;1.67;;;7.00;99.90;8.80;102566.00;;;;5029334;28;20286;-66
2023/03/01 11:07:56;;;;;;;1.43;1.17;;;7.20;99.90;9.10;102606.00;;;;5029403;28;20685;-66
2023/03/01 11:10:37;;;;;;;6.47;3.80;;;7.30;99.90;8.10;102627.00;;;;5038578;28;20199;-66
2023/03/01 11:13:18;;;;;;;2.73;1.93;;;7.30;99.90;8.30;102604.00;;;;5028533;28;20221;-66
2023/03/01 11:16:22;;;;;;;1.27;0.83;;;7.00;99.90;9.80;102608.00;;;;5028706;28;20240;-66
2023/03/01 11:19:10;;;;;;;1.27;0.93;;;7.50;99.90;10.80;102602.00;;;;5026448;28;20212;-67
2023/03/01 11:22:02;;;;;;;0.40;0.40;;;8.40;99.90;10.60;102588.00;;;;5030453;28;20279;-66
2023/03/01 11:25:00;;;;;;;0.73;0.73;;;8.60;99.90;11.00;102590.00;;;;5029520;28;20663;-67
2023/03/01 11:27:42;;;;;;;1.87;1.33;;;8.60;99.90;11.30;102572.00;;;;5028822;28;20652;-67
2023/03/01 11:30:38;;;;;;;1.90;1.70;;;8.80;99.90;11.60;102520.00;;;;5028396;28;20246;-67
2023/03/01 11:33:40;;;;;;;1.23;1.13;;;9.10;99.90;10.60;102582.00;;;;5028436;28;20221;-66
2023/03/01 11:37:02;;;;;;;2.30;2.10;;;8.60;99.90;10.60;102581.00;;;;5033242;28;20200;-66
2023/03/01 11:40:44;;;;;;;0.80;0.80;;;8.50;99.90;10.70;102572.00;;;;5024196;28;20176;-66
2023/03/01 11:43:52;;;;;;;1.63;1.30;;;8.70;99.90;9.60;102582.00;;;;4994047;28;21037;-66
2023/03/01 11:47:12;;;;;;;0.73;0.63;;;8.30;99.90;9.40;102582.00;;;;4969853;28;20279;-65
2023/03/01 11:50:26;;;;;;;0.70;0.70;;;8.20;99.90;9.70;102538.00;;;;5010657;28;20655;-65
2023/03/01 11:54:08;;;;;;;5.33;2.30;;;7.90;99.90;10.60;102557.00;;;;5041985;28;20226;-66
2023/03/01 11:57:01;;;;;;;0.97;0.97;;;8.60;99.90;10.90;102545.00;;;;5012223;28;20561;-65
2023/03/01 12:00:32;;;;;;;1.17;0.60;;;8.70;99.90;11.30;102545.00;;;;4997078;28;20814;-66
2023/03/01 12:03:53;;;;;;;1.97;1.83;;;9.00;99.90;11.90;102563.00;;;;4984283;28;20244;-66
2023/03/01 12:07:00;;;;;;;2.90;1.70;;;9.50;99.90;11.10;102567.00;;;;5013036;28;20277;-65
2023/03/01 12:09:44;;;;;;;1.43;1.33;;;9.30;99.90;11.40;102563.00;;;;4993873;28;20244;-66
2023/03/01 12:12:38;;;;;;;0.50;0.50;;;9.20;99.90;12.10;102552.00;;;;5011067;28;20212;-66
2023/03/01 12:15:53;;;;;;;2.90;2.42;;;9.40;99.90;9.90;102547.00;;;;5015094;28;20577;-66
2023/03/01 12:19:07;;;;;;;0.70;0.70;;;8.80;99.90;9.90;102541.00;;;;5023908;28;20577;-65
2023/03/01 12:22:20;;;;;;;1.67;0.80;;;8.40;99.90;10.70;102534.00;;;;4998618;28;20194;-66
2023/03/01 12:25:49;;;;;;;2.23;2.03;;;8.90;99.90;9.20;102543.00;;;;5005025;28;20193;-65
2023/03/01 12:29:13;;;;;;;1.80;1.70;;;8.50;99.90;10.10;102504.00;;;;5007830;28;20243;-66
2023/03/01 12:32:15;;;;;;;1.43;1.00;;;8.60;99.90;10.10;102529.00;;;;5010471;28;20228;-65
2023/03/01 12:35:31;;;;;;;2.93;1.90;;;8.40;99.90;10.00;102523.00;;;;5025682;28;20385;-66
2023/03/01 12:38:43;;;;;;;1.70;1.37;;;8.10;99.90;10.60;102520.00;;;;5024007;28;20215;-66
2023/03/01 12:42:18;;;;;;;0.53;0.53;;;8.50;99.90;9.80;102523.00;;;;5014033;28;20240;-66
2023/03/01 12:45:33;;;;;;;0.60;0.60;;;8.40;99.90;12.50;102491.00;;;;4996033;28;20193;-66
2023/03/01 12:49:05;;;;;;;3.03;2.57;;;9.20;99.90;9.20;102501.00;;;;4995748;28;20279;-65
2023/03/01 12:52:22;;;;;;;0.87;0.87;;;8.80;99.90;10.60;102477.00;;;;5001384;28;20194;-65
2023/03/01 12:56:12;;;;;;;1.20;1.20;;;8.60;99.90;10.60;102472.00;;;;5010237;28;20554;-65
2023/03/01 12:59:36;;;;;;;0.67;0.67;;;8.90;99.90;10.50;102475.00;;;;5014592;28;20261;-65
2023/03/01 13:02:40;;;;;;;1.13;1.07;;;8.80;99.90;9.60;102475.00;;;;5009409;28;20192;-65
2023/03/01 13:06:38;;;;;;;0.93;0.90;;;8.70;99.90;11.10;102460.00;;;;4994878;28;20233;-65
2023/03/01 13:09:49;;;;;;;4.23;2.00;;;8.70;99.90;10.50;102468.00;;;;5031500;28;20190;-65
2023/03/01 13:12:55;;;;;;;1.50;1.40;;;8.80;99.90;12.00;102459.00;;;;5015123;28;20186;-66
2023/03/01 13:15:43;;;;;;;1.50;1.10;;;9.20;99.90;10.20;102461.00;;;;5015040;28;20205;-65
2023/03/01 13:18:38;;;;;;;1.13;1.13;;;9.10;99.90;10.00;102453.00;;;;5014552;28;20205;-65
2023/03/01 13:21:36;;;;;;;2.50;1.57;;;8.70;99.90;9.60;102450.00;;;;5010979;28;20279;-65
2023/03/01 13:24:43;;;;;;;4.07;3.30;;;8.30;99.90;9.10;102441.00;;;;5009721;28;20207;-64
2023/03/01 13:27:21;;;;;;;5.47;4.07;;;7.80;99.90;8.80;102432.00;;;;4964359;28;20207;-65
2023/03/01 13:30:43;;;;;;;5.13;1.57;;;7.70;99.90;10.10;102432.00;;;;5024045;28;20211;-65
2023/03/01 13:33:27;;;;;;;2.93;1.17;;;8.00;99.90;10.10;102390.00;;;;5031614;28;20213;-65
2023/03/01 13:36:13;;;;;;;2.07;1.97;;;8.20;99.90;9.50;102455.00;;;;5018231;28;20192;-64
2023/03/01 13:39:03;;;;;;;0.93;0.93;;;8.00;99.90;9.30;102376.00;;;;4994604;28;20222;-65
2023/03/01 13:41:41;;;;;;;1.90;1.80;;;7.60;99.90;10.30;102433.00;;;;4995797;28;20201;-64
2023/03/01 13:44:38;;;;;;;1.00;0.90;;;8.00;99.90;10.00;102423.00;;;;5011390;28;20193;-65
2023/03/01 13:47:34;;;;;;;2.63;2.43;;;8.20;99.90;9.20;102433.00;;;;5035312;28;20189;-64
2023/03/01 13:50:33;;;;;;;2.53;1.50;;;8.10;99.90;9.40;102425.00;;;;4989322;28;20299;-65
2023/03/01 13:53:19;;;;;;;4.23;3.23;;;8.00;99.90;9.40;102422.00;;;;5036190;28;20670;-64
2023/03/01 13:55:56;;;;;;;1.33;1.23;;;7.90;99.90;10.40;102403.00;;;;5026627;28;20184;-64
2023/03/01 13:59:02;;;;;;;3.13;2.83;;;8.20;99.90;10.00;102411.00;;;;5011588;28;20264;-65
2023/03/01 14:01:34;;;;;;;1.93;1.50;;;8.30;99.90;9.80;102403.00;;;;5005554;28;20659;-64
2023/03/01 14:04:28;;;;;;;1.37;1.10;;;8.20;99.90;9.30;102419.00;;;;5006548;28;20202;-64
2023/03/01 14:07:20;;;;;;;1.80;1.43;;;8.10;99.90;9.50;102423.00;;;;4998058;28;20236;-64
2023/03/01 14:10:58;;;;;;;2.03;1.83;;;7.80;99.90;9.30;102417.00;;;;5007765;28;20213;-64
2023/03/01 14:14:24;;;;;;;1.70;1.60;;;7.80;99.90;9.40;102412.00;;;;4997892;28;20244;-64
2023/03/01 14:17:32;;;;;;;2.87;2.07;;;7.70;99.90;9.00;102410.00;;;;4963505;28;20288;-65
2023/03/01 14:20:35;;;;;;;3.40;3.10;;;7.70;99.90;8.60;102402.00;;;;4972255;28;20678;-64
2023/03/01 14:23:41;;;;;;;1.83;1.00;;;7.40;99.90;9.10;102397.00;;;;4964281;28;20295;-64
2023/03/01 14:26:53;;;;;;;0.90;0.63;;;7.50;99.90;9.40;102381.00;;;;4946902;28;20190;-64
2023/03/01 14:30:24;;;;;;;3.60;2.50;;;7.70;99.90;9.00;102377.00;;;;4921599;29;20199;-65
2023/03/01 14:33:35;;;;;;;1.03;1.00;;;7.50;99.90;8.70;102368.00;;;;4925663;28;20287;-64
2023/03/01 14:36:15;;;;;;;1.07;0.97;;;7.50;99.90;9.40;102334.00;;;;4954858;28;20200;-65
2023/03/01 14:38:49;;;;;;;1.93;1.20;;;7.60;99.90;9.30;102357.00;;;;4974339;28;20219;-65
2023/03/01 14:41:42;;;;;;;3.75;2.80;;;7.70;99.90;9.50;102312.00;;;;5010477;28;20436;-65
2023/03/01 14:44:29;;;;;;;1.30;1.20;;;7.80;99.90;9.80;102347.00;;;;5011756;28;20693;-64
2023/03/01 14:47:22;;;;;;;0.30;0.30;;;7.90;99.90;10.70;102333.00;;;;5003457;28;20184;-64
2023/03/01 14:50:07;;;;;;;1.60;1.50;;;8.10;99.90;9.70;102349.00;;;;5002435;28;20193;-65
2023/03/01 14:52:46;;;;;;;2.60;1.53;;;8.20;99.90;9.20;102360.00;;;;5011489;28;20187;-64
2023/03/01 14:56:01;;;;;;;1.83;1.73;;;7.80;99.90;9.80;102318.00;;;;5027916;28;20263;-66
2023/03/01 14:58:42;;;;;;;1.10;1.00;;;7.70;99.90;9.90;102343.00;;;;4999821;28;20196;-66
2023/03/01 15:01:26;;;;;;;4.20;2.67;;;7.90;99.90;9.70;102334.00;;;;4999435;28;20184;-66
2023/03/01 15:04:04;;;;;;;2.33;1.70;;;8.00;99.90;10.10;102320.00;;;;5003306;28;20215;-66
2023/03/01 15:06:51;;;;;;;1.43;1.33;;;8.00;99.90;9.80;102334.00;;;;5011509;28;20193;-66
2023/03/01 15:09:27;;;;;;;1.33;1.23;;;8.00;99.90;9.60;102338.00;;;;5004236;28;20186;-66
2023/03/01 15:12:39;;;;;;;1.87;1.33;;;7.90;99.90;9.40;102317.00;;;;4997239;28;20193;-66
2023/03/01 15:15:51;;;;;;;1.03;0.80;;;7.70;99.90;9.70;102320.00;;;;5024221;28;20196;-66
2023/03/01 15:19:20;;;;;;;3.30;1.93;;;7.90;99.90;9.70;102274.00;;;;5011718;28;20211;-66
2023/03/01 15:22:25;;;;;;;2.50;2.30;;;7.90;99.90;9.00;102332.00;;;;4993588;28;20287;-66
2023/03/01 15:25:04;;;;;;;0.77;0.77;;;7.70;99.90;9.90;102323.00;;;;4966561;28;20196;-67
2023/03/01 15:28:03;;;;;;;4.53;2.27;;;7.70;99.90;9.00;102309.00;;;;4986663;28;20200;-69
2023/03/01 15:30:51;;;;;;;4.60;3.77;;;7.70;99.90;9.00;102320.00;;;;5010274;28;20207;-67
2023/03/01 15:33:36;;;;;;;1.90;1.80;;;7.60;99.90;9.00;102328.00;;;;5009313;28;20207;-67
2023/03/01 15:36:41;;;;;;;1.83;1.73;;;7.60;99.90;9.20;102273.00;;;;5015763;28;20547;-67
2023/03/01 15:40:10;;;;;;;4.20;2.77;;;7.50;99.90;8.80;102326.00;;;;5015444;28;20222;-67
2023/03/01 15:42:37;;;;;;;4.83;2.93;;;7.40;99.90;9.20;102292.00;;;;5016759;28;20192;-67
2023/03/01 15:45:50;;;;;;;1.37;1.37;;;7.50;99.90;9.70;102304.00;;;;5023100;28;20754;-67
2023/03/01 15:48:20;;;;;;;1.43;0.73;;;7.70;99.90;9.30;102305.00;;;;5013882;28;20653;-68
2023/03/01 15:51:20;;;;;;;2.47;1.97;;;7.60;99.90;8.90;102309.00;;;;4998003;28;20188;-68
2023/03/01 15:53:55;;;;;;;1.83;1.40;;;7.60;99.90;9.10;102311.00;;;;5015771;28;20209;-68
2023/03/01 15:56:24;;;;;;;1.90;1.70;;;7.50;99.90;9.40;102297.00;;;;5012112;28;20195;-68
2023/03/01 15:58:50;;;;;;;2.73;2.53;;;7.60;99.90;8.80;102308.00;;;;5016772;28;20226;-68
2023/03/01 16:01:34;;;;;;;1.80;1.30;;;7.50;99.90;9.10;102281.00;;;;5013573;28;20241;-68
2023/03/01 16:04:22;;;;;;;2.57;2.37;;;7.50;99.90;8.80;102272.00;;;;5023068;28;20283;-68
2023/03/01 16:07:09;;;;;;;5.23;2.50;;;7.30;99.90;9.10;102269.00;;;;5013304;28;20558;-67
2023/03/01 16:09:37;;;;;;;2.30;2.20;;;7.30;99.90;9.20;102276.00;;;;5012171;28;20191;-68
2023/03/01 16:12:08;;;;;;;3.17;2.17;;;7.40;99.90;8.80;102278.00;;;;5014750;28;20190;-67
2023/03/01 16:14:44;;;;;;;4.67;3.00;;;7.50;99.90;8.90;102278.00;;;;5023712;28;20258;-68
2023/03/01 16:17:13;;;;;;;2.77;2.50;;;7.30;99.90;8.80;102284.00;;;;5012720;28;20888;-68
2023/03/01 16:19:40;;;;;;;1.37;1.17;;;7.20;99.90;9.10;102276.00;;;;5015168;28;20297;-68
2023/03/01 16:22:50;;;;;;;1.47;1.27;;;7.30;99.90;9.20;102289.00;;;;5028240;28;20793;-68
2023/03/01 16:25:50;;;;;;;1.13;0.73;;;7.20;99.90;9.00;102291.00;;;;5001684;28;20202;-67
2023/03/01 16:29:03;;;;;;;0.60;0.60;;;7.20;99.90;8.90;102331.00;;;;5014138;28;20191;-67
2023/03/01 16:39:21;;;;;;;2.33;1.27;;;7.20;99.90;8.80;102303.00;;;;4870874;29;20306;-67
2023/03/01 16:42:10;;;;;;;1.20;1.20;;;7.10;99.90;8.30;102297.00;;;;4891207;29;20196;-67
2023/03/01 16:45:07;;;;;;;1.65;1.55;;;6.90;99.90;8.60;102303.00;;;;4884252;29;20532;-66
2023/03/01 16:48:59;;;;;;;3.27;2.33;;;7.00;99.90;9.10;102300.00;;;;4894336;29;20215;-66
2023/03/01 16:52:30;;;;;;;0.40;0.40;;;7.00;99.90;8.90;102310.00;;;;4872859;29;20597;-67
2023/03/01 16:55:25;;;;;;;0.35;0.35;;;6.90;99.90;8.80;102301.00;;;;4886867;29;20502;-67
2023/03/01 16:57:51;;;;;;;1.90;1.30;;;7.00;99.90;9.10;102309.00;;;;4894622;29;20209;-67
2023/03/01 17:00:39;;;;;;;1.97;1.83;;;7.10;99.90;9.00;102256.00;;;;4878154;29;20209;-67
2023/03/01 17:03:26;;;;;;;3.80;2.63;;;7.00;99.90;8.40;102307.00;;;;4907253;29;20264;-67
2023/03/01 17:06:50;;;;;;;0.77;0.73;;;6.90;99.90;9.30;102305.00;;;;4894569;29;20232;-67
2023/03/01 17:09:56;;;;;;;0.83;0.57;;;6.90;99.90;8.20;102315.00;;;;4947823;29;20208;-67
2023/03/01 17:12:49;;;;;;;0.70;0.70;;;6.70;99.90;8.40;102298.00;;;;4947038;29;20254;-67
2023/03/01 17:15:23;;;;;;;0.50;0.50;;;6.60;99.90;8.60;102235.00;;;;5009985;28;20210;-67
2023/03/01 17:18:08;;;;;;;0.40;0.40;;;6.70;99.90;8.50;102288.00;;;;5012169;28;20242;-67
2023/03/01 17:21:35;;;;;;;1.03;0.80;;;6.50;99.90;8.60;102294.00;;;;4991412;28;20217;-66
2023/03/01 17:24:35;;;;;;;1.53;1.43;;;6.50;99.90;7.60;102313.00;;;;5010180;28;20208;-67
2023/03/01 17:27:40;;;;;;;1.50;1.40;;;6.30;99.90;8.40;102296.00;;;;5001256;28;20226;-66
2023/03/01 17:30:16;;;;;;;0.73;0.73;;;6.40;99.90;8.60;102311.00;;;;4990858;28;20279;-66
2023/03/01 17:33:44;;;;;;;;;;;;;;;;;;;;;
2023/03/01 17:36:53;;;;;;;0.97;0.87;;;6.30;99.90;8.00;102318.00;;;;4981551;28;20204;-66
2023/03/01 17:40:23;;;;;;;1.90;1.80;;;6.40;99.90;7.90;102323.00;;;;4995940;28;20295;-66
2023/03/01 17:43:36;;;;;;;1.40;1.23;;;6.20;99.90;7.70;102327.00;;;;5017078;28;20184;-66
2023/03/01 17:46:43;;;;;;;1.27;1.20;;;6.10;99.90;7.60;102323.00;;;;5017190;28;20176;-66
2023/03/01 17:50:19;;;;;;;0.40;0.40;;;6.00;99.90;7.80;102329.00;;;;5009351;28;20200;-66
2023/03/01 17:53:09;;;;;;;2.37;2.13;;;6.10;99.90;7.80;102338.00;;;;4999713;28;20646;-66
2023/03/01 17:56:41;;;;;;;1.37;1.23;;;6.00;99.90;8.10;102315.00;;;;5012821;28;20297;-66
2023/03/01 17:59:30;;;;;;;0.30;0.30;;;6.30;99.90;8.70;102322.00;;;;5042046;28;20268;-66
2023/03/01 18:02:34;;;;;;;1.57;1.47;;;6.20;99.90;7.90;102332.00;;;;4992935;28;20560;-66
2023/03/01 18:05:26;;;;;;;1.30;1.23;;;6.10;99.90;8.00;102335.00;;;;4993844;28;20469;-66
2023/03/01 18:08:19;;;;;;;0.63;0.63;;;6.20;99.90;8.80;102330.00;;;;5006806;28;20181;-67
2023/03/01 18:11:17;;;;;;;1.80;1.27;;;6.20;99.90;7.70;102340.00;;;;5012645;28;20633;-67
2023/03/01 18:14:21;;;;;;;1.40;0.90;;;6.10;99.90;8.20;102288.00;;;;5000781;28;20199;-67
2023/03/01 18:17:10;;;;;;;0.77;0.63;;;6.00;99.90;8.60;102333.00;;;;5011618;28;20186;-67
2023/03/01 18:20:06;;;;;;;0.10;0.10;;;6.10;99.90;8.10;102328.00;;;;4992308;28;20208;-66
2023/03/01 18:22:51;;;;;;;0.73;0.73;;;6.10;99.90;7.70;102307.00;;;;5008536;28;20194;-66
2023/03/01 18:26:21;;;;;;;0.20;0.20;;;5.90;99.90;7.80;102339.00;;;;5012518;28;20198;-66
2023/03/01 18:29:37;;;;;;;0.80;0.80;;;5.90;99.90;8.20;102351.00;;;;4998542;28;20225;-66
2023/03/01 18:32:07;;;;;;;1.33;1.23;;;5.80;99.90;7.70;102351.00;;;;4998995;28;20664;-67
2023/03/01 18:35:20;;;;;;;3.43;0.93;;;5.80;99.90;8.00;102364.00;;;;4994831;28;20222;-67
2023/03/01 18:38:04;;;;;;;0.47;0.47;;;5.80;99.90;7.90;102370.00;;;;5020426;28;20283;-67
2023/03/01 18:40:47;;;;;;;0.53;0.53;;;5.80;99.90;7.80;102363.00;;;;5012809;28;20632;-67
2023/03/01 18:43:54;;;;;;;1.37;1.27;;;5.70;99.90;7.30;102322.00;;;;4999352;28;20217;-66
2023/03/01 18:47:21;;;;;;;8.97;1.87;;;5.50;99.90;7.60;102369.00;;;;4996841;28;20205;-66
2023/03/01 18:50:13;;;;;;;0.63;0.63;;;5.40;99.90;7.90;102356.00;;;;5010109;28;20195;-66
2023/03/01 18:53:14;;;;;;;0.17;0.17;;;5.50;99.90;8.00;102350.00;;;;5011450;28;20190;-67
2023/03/01 18:56:30;;;;;;;0.60;0.60;;;5.80;99.90;7.90;102359.00;;;;5013249;28;20578;-67
2023/03/01 18:59:20;;;;;;;0.87;0.87;;;5.70;99.90;7.20;102354.00;;;;5001155;28;20217;-67
2023/03/01 19:02:03;;;;;;;0.30;0.30;;;5.50;99.90;7.50;102370.00;;;;5014367;28;20680;-67
2023/03/01 19:04:55;;;;;;;1.47;1.37;;;5.40;99.90;7.10;102361.00;;;;5017592;28;20584;-67
2023/03/01 19:07:59;;;;;;;1.17;1.07;;;5.40;99.90;7.60;102343.00;;;;5025206;28;20192;-67
2023/03/01 19:11:32;;;;;;;0.53;0.53;;;5.30;99.90;7.30;102353.00;;;;5019183;28;20210;-67
2023/03/01 19:14:41;;;;;;;0.20;0.20;;;5.30;99.90;7.60;102346.00;;;;4996162;28;20232;-67
2023/03/01 19:17:31;;;;;;;0.47;0.47;;;5.30;99.90;7.90;102293.00;;;;4991795;28;20193;-67
2023/03/01 19:20:20;;;;;;;0.60;0.60;;;5.30;99.90;7.40;102337.00;;;;4996691;28;20288;-67
2023/03/01 19:24:01;;;;;;;1.70;1.70;;;5.40;99.90;7.90;102333.00;;;;4997428;28;20200;-67
2023/03/01 19:27:05;;;;;;;0.30;0.30;;;5.50;99.90;7.70;102331.00;;;;5025478;28;20199;-67
2023/03/01 19:29:54;;;;;;;1.03;1.03;;;5.50;99.90;7.00;102336.00;;;;5025360;28;20315;-67
2023/03/01 19:32:40;;;;;;;0.70;0.70;;;5.20;99.90;7.00;102346.00;;;;5013278;28;20205;-66
2023/03/01 19:35:41;;;;;;;3.60;2.00;;;5.00;99.90;6.90;102297.00;;;;5027637;28;20204;-67
2023/03/01 19:38:35;;;;;;;0.47;0.47;;;5.10;99.90;7.50;102310.00;;;;5008544;28;20211;-67
2023/03/01 19:42:04;;;;;;;0.40;0.40;;;5.10;99.90;6.90;102335.00;;;;5024998;28;20393;-66
2023/03/01 19:45:11;;;;;;;0.70;0.70;;;5.10;99.90;6.90;102343.00;;;;5010076;28;20534;-67
2023/03/01 19:48:15;;;;;;;0.73;0.73;;;4.90;99.90;7.50;102335.00;;;;5026021;28;20187;-67
2023/03/01 19:51:19;;;;;;;0.10;0.10;;;5.00;99.90;7.00;102334.00;;;;5024989;28;20189;-67
2023/03/01 19:54:28;;;;;;;0.10;0.10;;;5.10;99.90;7.70;102321.00;;;;5020873;28;20204;-67
2023/03/01 19:57:35;;;;;;;0.53;0.53;;;5.20;99.90;7.10;102275.00;;;;5010224;28;20633;-67
2023/03/01 20:00:57;;;;;;;0.73;0.37;;;5.10;99.90;7.20;102341.00;;;;5015498;28;20199;-66
2023/03/01 20:04:01;;;;;;;3.57;1.90;;;5.10;99.90;6.60;102354.00;;;;5015127;28;20646;-66
2023/03/01 20:07:14;;;;;;;1.20;1.13;;;4.70;99.90;6.20;102351.00;;;;4992169;28;20199;-66
2023/03/01 20:10:38;;;;;;;0.77;0.70;;;4.50;99.90;6.20;102338.00;;;;5013106;28;20678;-66
2023/03/01 20:13:32;;;;;;;2.97;2.50;;;4.60;99.90;6.40;102337.00;;;;4996497;28;20200;-66
2023/03/01 20:16:41;;;;;;;4.37;2.43;;;4.60;99.90;6.00;102338.00;;;;4996619;28;20258;-66
2023/03/01 20:19:44;;;;;;;0.40;0.40;;;4.60;99.90;6.30;102347.00;;;;5012311;28;20203;-66
2023/03/01 20:23:02;;;;;;;0.17;0.17;;;4.60;99.90;6.40;102290.00;;;;4996121;28;20193;-67
2023/03/01 20:26:15;;;;;;;1.60;1.50;;;4.60;99.90;7.00;102336.00;;;;4989416;28;20285;-66
2023/03/01 20:29:11;;;;;;;3.07;2.17;;;4.60;99.90;6.80;102265.00;;;;5002576;28;20556;-66
2023/03/01 20:32:15;;;;;;;3.30;2.20;;;4.70;99.90;6.30;102329.00;;;;4962995;28;20291;-66
2023/03/01 20:35:40;;;;;;;0.10;0.10;;;4.70;99.90;6.70;102328.00;;;;5001115;28;20668;-67
2023/03/01 20:38:56;;;;;;;0.77;0.77;;;4.90;99.90;7.10;102326.00;;;;4998443;28;20215;-67
2023/03/01 20:42:07;;;;;;;0.67;0.67;;;4.80;99.90;7.30;102333.00;;;;5013454;28;20186;-67
2023/03/01 20:44:41;;;;;;;0.40;0.40;;;4.80;99.90;6.90;102290.00;;;;4997251;28;20208;-67
2023/03/01 20:47:42;;;;;;;1.47;1.33;;;4.80;99.90;6.70;102340.00;;;;5010757;28;20197;-67
2023/03/01 20:54:32;;;;;;;0.57;0.57;;;4.70;99.90;7.30;102345.00;;;;5023739;28;20210;-67
2023/03/01 20:57:36;;;;;;;0.80;0.80;;;4.90;99.90;6.60;102342.00;;;;5022859;28;20252;-67
